sensor_id;sensor_type;location;lat;lon;timestamp;pressure;altitude;pressure_sealevel;temperature;humidity
55460;BME280;41326;45.302;-122.946;2022-07-05T00:00:46;100733.40;;;22.37;51.76
55460;BME280;41326;45.302;-122.946;2022-07-05T00:03:16;100730.35;;;22.51;52.71
55460;BME280;41326;45.302;-122.946;2022-07-05T00:05:47;100724.57;;;22.61;52.98
55460;BME280;41326;45.302;-122.946;2022-07-05T00:08:17;100724.94;;;22.65;53.23
55460;BME280;41326;45.302;-122.946;2022-07-05T00:10:48;100722.97;;;22.66;53.44
55460;BME280;41326;45.302;-122.946;2022-07-05T00:13:18;100723.06;;;22.80;51.25
55460;BME280;41326;45.302;-122.946;2022-07-05T00:15:49;100722.75;;;22.83;49.23
55460;BME280;41326;45.302;-122.946;2022-07-05T00:18:19;100717.53;;;22.57;48.95
55460;BME280;41326;45.302;-122.946;2022-07-05T00:20:49;100713.81;;;22.55;47.33
55460;BME280;41326;45.302;-122.946;2022-07-05T00:23:20;100711.04;;;22.33;50.08
55460;BME280;41326;45.302;-122.946;2022-07-05T00:25:50;100710.05;;;22.43;50.56
55460;BME280;41326;45.302;-122.946;2022-07-05T00:28:20;100710.71;;;22.49;50.98
55460;BME280;41326;45.302;-122.946;2022-07-05T00:30:50;100711.64;;;22.60;51.11
55460;BME280;41326;45.302;-122.946;2022-07-05T00:33:21;100708.02;;;22.68;51.27
55460;BME280;41326;45.302;-122.946;2022-07-05T00:35:51;100711.08;;;22.78;51.30
55460;BME280;41326;45.302;-122.946;2022-07-05T00:38:23;100709.15;;;22.84;51.50
55460;BME280;41326;45.302;-122.946;2022-07-05T00:40:51;100707.95;;;22.90;52.49
55460;BME280;41326;45.302;-122.946;2022-07-05T00:43:22;100709.12;;;22.94;53.24
55460;BME280;41326;45.302;-122.946;2022-07-05T00:45:52;100711.33;;;22.98;53.48
55460;BME280;41326;45.302;-122.946;2022-07-05T00:48:23;100711.34;;;22.79;51.97
55460;BME280;41326;45.302;-122.946;2022-07-05T00:50:56;100710.73;;;22.71;50.61
55460;BME280;41326;45.302;-122.946;2022-07-05T00:53:26;100706.96;;;22.59;49.65
55460;BME280;41326;45.302;-122.946;2022-07-05T00:55:55;100705.75;;;22.60;48.99
55460;BME280;41326;45.302;-122.946;2022-07-05T00:58:24;100702.11;;;22.40;48.21
55460;BME280;41326;45.302;-122.946;2022-07-05T01:00:56;100699.34;;;22.43;50.10
55460;BME280;41326;45.302;-122.946;2022-07-05T01:03:24;100697.56;;;22.47;51.11
55460;BME280;41326;45.302;-122.946;2022-07-05T01:05:55;100697.39;;;22.53;51.37
55460;BME280;41326;45.302;-122.946;2022-07-05T01:08:25;100693.90;;;22.56;51.67
55460;BME280;41326;45.302;-122.946;2022-07-05T01:10:55;100692.80;;;22.57;51.37
55460;BME280;41326;45.302;-122.946;2022-07-05T01:13:25;100690.18;;;22.67;50.03
55460;BME280;41326;45.302;-122.946;2022-07-05T01:15:56;100685.01;;;22.64;48.92
55460;BME280;41326;45.302;-122.946;2022-07-05T01:18:27;100684.14;;;22.56;48.21
55460;BME280;41326;45.302;-122.946;2022-07-05T01:20:56;100682.33;;;22.48;49.27
55460;BME280;41326;45.302;-122.946;2022-07-05T01:23:28;100678.15;;;22.51;50.31
55460;BME280;41326;45.302;-122.946;2022-07-05T01:25:57;100676.33;;;22.51;50.82
55460;BME280;41326;45.302;-122.946;2022-07-05T01:28:27;100677.07;;;22.56;50.98
55460;BME280;41326;45.302;-122.946;2022-07-05T01:30:57;100676.26;;;22.61;51.13
55460;BME280;41326;45.302;-122.946;2022-07-05T01:33:33;100672.96;;;22.60;50.39
55460;BME280;41326;45.302;-122.946;2022-07-05T01:35:58;100668.60;;;22.59;49.30
55460;BME280;41326;45.302;-122.946;2022-07-05T01:38:29;100669.84;;;22.48;49.25
55460;BME280;41326;45.302;-122.946;2022-07-05T01:40:59;100667.86;;;22.53;50.00
55460;BME280;41326;45.302;-122.946;2022-07-05T01:43:29;100667.54;;;22.54;50.87
55460;BME280;41326;45.302;-122.946;2022-07-05T01:46:00;100668.82;;;22.58;51.13
55460;BME280;41326;45.302;-122.946;2022-07-05T01:48:32;100669.68;;;22.59;51.34
55460;BME280;41326;45.302;-122.946;2022-07-05T01:51:04;100669.23;;;22.63;51.42
55460;BME280;41326;45.302;-122.946;2022-07-05T01:53:33;100668.69;;;22.56;50.74
55460;BME280;41326;45.302;-122.946;2022-07-05T01:56:03;100673.68;;;22.68;48.86
55460;BME280;41326;45.302;-122.946;2022-07-05T01:58:32;100678.29;;;22.66;48.35
55460;BME280;41326;45.302;-122.946;2022-07-05T02:01:02;100676.86;;;22.44;49.35
55460;BME280;41326;45.302;-122.946;2022-07-05T02:03:32;100678.01;;;22.37;50.64
55460;BME280;41326;45.302;-122.946;2022-07-05T02:06:02;100676.38;;;22.48;50.65
55460;BME280;41326;45.302;-122.946;2022-07-05T02:08:35;100676.94;;;22.56;50.65
55460;BME280;41326;45.302;-122.946;2022-07-05T02:11:03;100676.73;;;22.55;50.89
55460;BME280;41326;45.302;-122.946;2022-07-05T02:13:33;100672.19;;;22.63;48.89
55460;BME280;41326;45.302;-122.946;2022-07-05T02:16:04;100672.40;;;22.44;48.71
55460;BME280;41326;45.302;-122.946;2022-07-05T02:18:35;100672.98;;;22.31;48.93
55460;BME280;41326;45.302;-122.946;2022-07-05T02:21:05;100672.67;;;22.32;49.65
55460;BME280;41326;45.302;-122.946;2022-07-05T02:23:34;100674.91;;;22.33;50.59
55460;BME280;41326;45.302;-122.946;2022-07-05T02:26:05;100675.57;;;22.43;50.65
55460;BME280;41326;45.302;-122.946;2022-07-05T02:28:35;100676.92;;;22.49;50.70
55460;BME280;41326;45.302;-122.946;2022-07-05T02:31:05;100680.09;;;22.57;50.68
55460;BME280;41326;45.302;-122.946;2022-07-05T02:33:36;100679.68;;;22.59;50.33
55460;BME280;41326;45.302;-122.946;2022-07-05T02:36:12;100679.91;;;22.66;48.66
55460;BME280;41326;45.302;-122.946;2022-07-05T02:38:37;100679.59;;;22.61;48.12
55460;BME280;41326;45.302;-122.946;2022-07-05T02:41:07;100680.81;;;22.28;47.50
55460;BME280;41326;45.302;-122.946;2022-07-05T02:43:38;100679.43;;;22.21;48.49
55460;BME280;41326;45.302;-122.946;2022-07-05T02:46:08;100681.83;;;22.27;48.80
55460;BME280;41326;45.302;-122.946;2022-07-05T02:48:39;100685.44;;;22.34;48.94
55460;BME280;41326;45.302;-122.946;2022-07-05T02:51:09;100685.37;;;22.42;49.04
55460;BME280;41326;45.302;-122.946;2022-07-05T02:53:38;100685.11;;;22.51;49.12
55460;BME280;41326;45.302;-122.946;2022-07-05T02:56:10;100686.57;;;22.49;49.45
55460;BME280;41326;45.302;-122.946;2022-07-05T02:58:39;100686.54;;;22.59;49.47
55460;BME280;41326;45.302;-122.946;2022-07-05T03:01:10;100687.53;;;22.66;50.12
55460;BME280;41326;45.302;-122.946;2022-07-05T03:03:40;100687.32;;;22.66;50.80
55460;BME280;41326;45.302;-122.946;2022-07-05T03:06:20;100688.38;;;22.70;50.90
55460;BME280;41326;45.302;-122.946;2022-07-05T03:08:40;100690.84;;;22.76;50.91
55460;BME280;41326;45.302;-122.946;2022-07-05T03:11:10;100693.89;;;22.78;51.00
55460;BME280;41326;45.302;-122.946;2022-07-05T03:13:41;100698.76;;;22.83;51.00
55460;BME280;41326;45.302;-122.946;2022-07-05T03:16:11;100701.67;;;22.85;51.04
55460;BME280;41326;45.302;-122.946;2022-07-05T03:18:41;100702.79;;;22.88;51.14
55460;BME280;41326;45.302;-122.946;2022-07-05T03:21:12;100704.41;;;22.93;51.64
55460;BME280;41326;45.302;-122.946;2022-07-05T03:23:42;100708.04;;;22.92;52.15
55460;BME280;41326;45.302;-122.946;2022-07-05T03:26:11;100708.19;;;22.91;52.28
55460;BME280;41326;45.302;-122.946;2022-07-05T03:28:42;100707.81;;;22.92;52.35
55460;BME280;41326;45.302;-122.946;2022-07-05T03:31:12;100705.01;;;22.92;52.39
55460;BME280;41326;45.302;-122.946;2022-07-05T03:33:43;100705.19;;;22.95;52.36
55460;BME280;41326;45.302;-122.946;2022-07-05T03:36:14;100708.45;;;22.99;50.33
55460;BME280;41326;45.302;-122.946;2022-07-05T03:38:45;100706.67;;;22.99;49.12
55460;BME280;41326;45.302;-122.946;2022-07-05T03:41:14;100707.95;;;22.68;49.77
55460;BME280;41326;45.302;-122.946;2022-07-05T03:43:45;100706.54;;;22.64;50.71
55460;BME280;41326;45.302;-122.946;2022-07-05T03:46:15;100705.83;;;22.68;50.85
55460;BME280;41326;45.302;-122.946;2022-07-05T03:48:45;100704.73;;;22.66;51.06
55460;BME280;41326;45.302;-122.946;2022-07-05T03:51:16;100702.45;;;22.68;51.16
55460;BME280;41326;45.302;-122.946;2022-07-05T03:53:46;100702.41;;;22.69;51.25
55460;BME280;41326;45.302;-122.946;2022-07-05T03:56:16;100698.53;;;22.73;51.28
55460;BME280;41326;45.302;-122.946;2022-07-05T03:58:47;100699.66;;;22.77;51.39
55460;BME280;41326;45.302;-122.946;2022-07-05T04:01:17;100703.14;;;22.80;52.00
55460;BME280;41326;45.302;-122.946;2022-07-05T04:03:48;100705.07;;;22.78;52.59
55460;BME280;41326;45.302;-122.946;2022-07-05T04:06:18;100707.96;;;22.80;52.54
55460;BME280;41326;45.302;-122.946;2022-07-05T04:08:48;100707.75;;;22.80;52.59
55460;BME280;41326;45.302;-122.946;2022-07-05T04:11:19;100713.12;;;22.79;52.65
55460;BME280;41326;45.302;-122.946;2022-07-05T04:13:49;100714.32;;;22.79;52.68
55460;BME280;41326;45.302;-122.946;2022-07-05T04:16:19;100716.88;;;22.81;52.66
55460;BME280;41326;45.302;-122.946;2022-07-05T04:18:50;100719.56;;;22.83;52.76
55460;BME280;41326;45.302;-122.946;2022-07-05T04:21:21;100721.42;;;22.77;53.41
55460;BME280;41326;45.302;-122.946;2022-07-05T04:23:51;100723.86;;;22.78;53.80
55460;BME280;41326;45.302;-122.946;2022-07-05T04:26:22;100725.03;;;22.81;53.72
55460;BME280;41326;45.302;-122.946;2022-07-05T04:28:51;100729.42;;;22.80;53.73
55460;BME280;41326;45.302;-122.946;2022-07-05T04:31:22;100733.39;;;22.81;53.72
55460;BME280;41326;45.302;-122.946;2022-07-05T04:33:52;100737.82;;;22.74;53.89
55460;BME280;41326;45.302;-122.946;2022-07-05T04:36:22;100738.88;;;22.79;53.80
55460;BME280;41326;45.302;-122.946;2022-07-05T04:38:52;100745.50;;;22.81;53.87
55460;BME280;41326;45.302;-122.946;2022-07-05T04:41:23;100747.78;;;22.81;54.41
55460;BME280;41326;45.302;-122.946;2022-07-05T04:43:53;100751.10;;;22.83;54.70
55460;BME280;41326;45.302;-122.946;2022-07-05T04:46:24;100752.71;;;22.84;54.64
55460;BME280;41326;45.302;-122.946;2022-07-05T04:48:54;100753.29;;;22.83;54.65
55460;BME280;41326;45.302;-122.946;2022-07-05T04:51:24;100755.00;;;22.84;54.57
55460;BME280;41326;45.302;-122.946;2022-07-05T04:53:54;100757.42;;;22.83;54.64
55460;BME280;41326;45.302;-122.946;2022-07-05T04:56:24;100758.55;;;22.81;54.65
55460;BME280;41326;45.302;-122.946;2022-07-05T04:58:55;100761.46;;;22.81;54.81
55460;BME280;41326;45.302;-122.946;2022-07-05T05:01:27;100759.68;;;22.79;55.23
55460;BME280;41326;45.302;-122.946;2022-07-05T05:03:56;100764.89;;;22.74;55.65
55460;BME280;41326;45.302;-122.946;2022-07-05T05:06:27;100765.80;;;22.74;55.58
55460;BME280;41326;45.302;-122.946;2022-07-05T05:08:57;100771.70;;;22.74;55.61
55460;BME280;41326;45.302;-122.946;2022-07-05T05:11:27;100771.20;;;22.76;55.49
55460;BME280;41326;45.302;-122.946;2022-07-05T05:13:57;100768.49;;;22.79;55.38
55460;BME280;41326;45.302;-122.946;2022-07-05T05:16:27;100770.77;;;22.81;55.31
55460;BME280;41326;45.302;-122.946;2022-07-05T05:18:58;100771.31;;;22.68;55.73
55460;BME280;41326;45.302;-122.946;2022-07-05T05:22:36;100771.34;;;22.74;55.95
55460;BME280;41326;45.302;-122.946;2022-07-05T05:25:09;100772.97;;;22.69;56.12
55460;BME280;41326;45.302;-122.946;2022-07-05T05:27:40;100768.57;;;22.71;56.15
55460;BME280;41326;45.302;-122.946;2022-07-05T05:30:07;100769.16;;;22.71;56.23
55460;BME280;41326;45.302;-122.946;2022-07-05T05:32:41;100767.50;;;22.72;56.37
55460;BME280;41326;45.302;-122.946;2022-07-05T05:35:13;100768.79;;;22.77;56.70
55460;BME280;41326;45.302;-122.946;2022-07-05T05:37:47;100768.10;;;22.79;56.94
55460;BME280;41326;45.302;-122.946;2022-07-05T05:40:14;100772.02;;;22.79;57.32
55460;BME280;41326;45.302;-122.946;2022-07-05T05:42:43;100774.22;;;22.78;57.64
55460;BME280;41326;45.302;-122.946;2022-07-05T05:45:14;100771.27;;;22.80;57.84
55460;BME280;41326;45.302;-122.946;2022-07-05T05:47:49;100772.72;;;22.78;58.42
55460;BME280;41326;45.302;-122.946;2022-07-05T05:50:18;100770.53;;;22.75;58.77
55460;BME280;41326;45.302;-122.946;2022-07-05T05:52:45;100769.02;;;22.75;58.75
55460;BME280;41326;45.302;-122.946;2022-07-05T05:55:15;100767.28;;;22.79;58.60
55460;BME280;41326;45.302;-122.946;2022-07-05T05:57:45;100767.46;;;22.79;58.50
55460;BME280;41326;45.302;-122.946;2022-07-05T06:00:17;100765.15;;;22.76;58.52
55460;BME280;41326;45.302;-122.946;2022-07-05T06:02:47;100764.70;;;22.73;58.51
55460;BME280;41326;45.302;-122.946;2022-07-05T06:05:17;100766.69;;;22.66;58.66
55460;BME280;41326;45.302;-122.946;2022-07-05T06:07:51;100769.92;;;22.66;58.62
55460;BME280;41326;45.302;-122.946;2022-07-05T06:10:21;100770.54;;;22.67;58.51
55460;BME280;41326;45.302;-122.946;2022-07-05T06:12:48;100772.03;;;22.70;58.33
55460;BME280;41326;45.302;-122.946;2022-07-05T06:15:17;100772.87;;;22.69;58.32
55460;BME280;41326;45.302;-122.946;2022-07-05T06:17:48;100770.97;;;22.67;58.35
55460;BME280;41326;45.302;-122.946;2022-07-05T06:20:19;100771.68;;;22.67;58.32
55460;BME280;41326;45.302;-122.946;2022-07-05T06:22:49;100771.06;;;22.63;58.42
55460;BME280;41326;45.302;-122.946;2022-07-05T06:25:19;100770.79;;;22.66;58.44
55460;BME280;41326;45.302;-122.946;2022-07-05T06:27:50;100769.04;;;22.66;58.44
55460;BME280;41326;45.302;-122.946;2022-07-05T06:30:21;100766.39;;;22.68;58.42
55460;BME280;41326;45.302;-122.946;2022-07-05T06:32:50;100770.40;;;22.67;58.45
55460;BME280;41326;45.302;-122.946;2022-07-05T06:35:20;100772.80;;;22.60;58.69
55460;BME280;41326;45.302;-122.946;2022-07-05T06:37:52;100775.07;;;22.65;58.54
55460;BME280;41326;45.302;-122.946;2022-07-05T06:40:24;100772.56;;;22.63;58.52
55460;BME280;41326;45.302;-122.946;2022-07-05T06:42:52;100769.91;;;22.63;58.51
55460;BME280;41326;45.302;-122.946;2022-07-05T06:45:21;100771.09;;;22.60;58.68
55460;BME280;41326;45.302;-122.946;2022-07-05T06:47:56;100772.30;;;22.52;58.94
55460;BME280;41326;45.302;-122.946;2022-07-05T06:50:21;100771.10;;;22.54;58.91
55460;BME280;41326;45.302;-122.946;2022-07-05T06:52:52;100769.48;;;22.56;58.90
55460;BME280;41326;45.302;-122.946;2022-07-05T06:55:23;100766.23;;;22.58;58.89
55460;BME280;41326;45.302;-122.946;2022-07-05T06:57:57;100768.65;;;22.47;59.29
55460;BME280;41326;45.302;-122.946;2022-07-05T07:00:23;100770.75;;;22.49;59.25
55460;BME280;41326;45.302;-122.946;2022-07-05T07:02:53;100768.88;;;22.56;59.07
55460;BME280;41326;45.302;-122.946;2022-07-05T07:05:23;100766.14;;;22.54;59.28
55460;BME280;41326;45.302;-122.946;2022-07-05T07:07:54;100768.36;;;22.50;59.43
55460;BME280;41326;45.302;-122.946;2022-07-05T07:10:25;100767.52;;;22.53;59.35
55460;BME280;41326;45.302;-122.946;2022-07-05T07:12:55;100766.55;;;22.54;59.39
55460;BME280;41326;45.302;-122.946;2022-07-05T07:15:25;100764.09;;;22.54;59.42
55460;BME280;41326;45.302;-122.946;2022-07-05T07:17:57;100765.83;;;22.52;59.53
55460;BME280;41326;45.302;-122.946;2022-07-05T07:20:27;100765.70;;;22.54;59.42
55460;BME280;41326;45.302;-122.946;2022-07-05T07:22:56;100766.41;;;22.51;59.44
55460;BME280;41326;45.302;-122.946;2022-07-05T07:25:27;100765.98;;;22.51;59.50
55460;BME280;41326;45.302;-122.946;2022-07-05T07:27:59;100766.01;;;22.46;59.71
55460;BME280;41326;45.302;-122.946;2022-07-05T07:30:29;100764.19;;;22.46;59.73
55460;BME280;41326;45.302;-122.946;2022-07-05T07:32:58;100761.99;;;22.46;59.73
55460;BME280;41326;45.302;-122.946;2022-07-05T07:35:29;100762.67;;;22.50;59.63
55460;BME280;41326;45.302;-122.946;2022-07-05T07:37:58;100763.38;;;22.43;59.82
55460;BME280;41326;45.302;-122.946;2022-07-05T07:40:28;100764.55;;;22.46;59.66
55460;BME280;41326;45.302;-122.946;2022-07-05T07:42:59;100770.64;;;22.46;59.61
55460;BME280;41326;45.302;-122.946;2022-07-05T07:45:29;100769.17;;;22.35;60.05
55460;BME280;41326;45.302;-122.946;2022-07-05T07:47:59;100771.14;;;22.41;59.91
55460;BME280;41326;45.302;-122.946;2022-07-05T07:50:30;100767.37;;;22.34;60.13
55460;BME280;41326;45.302;-122.946;2022-07-05T07:53:01;100768.76;;;22.31;60.24
55460;BME280;41326;45.302;-122.946;2022-07-05T07:55:32;100767.91;;;22.29;60.33
55460;BME280;41326;45.302;-122.946;2022-07-05T07:58:02;100765.42;;;22.41;59.93
55460;BME280;41326;45.302;-122.946;2022-07-05T08:00:32;100767.49;;;22.43;59.66
55460;BME280;41326;45.302;-122.946;2022-07-05T08:03:02;100770.80;;;22.40;59.71
55460;BME280;41326;45.302;-122.946;2022-07-05T08:05:32;100774.64;;;22.43;59.70
55460;BME280;41326;45.302;-122.946;2022-07-05T08:08:03;100779.17;;;22.43;59.73
55460;BME280;41326;45.302;-122.946;2022-07-05T08:10:33;100778.63;;;22.39;59.85
55460;BME280;41326;45.302;-122.946;2022-07-05T08:13:04;100779.09;;;22.30;60.20
55460;BME280;41326;45.302;-122.946;2022-07-05T08:15:34;100778.01;;;22.34;60.07
55460;BME280;41326;45.302;-122.946;2022-07-05T08:18:04;100776.73;;;22.35;60.02
55460;BME280;41326;45.302;-122.946;2022-07-05T08:20:34;100772.70;;;22.38;59.83
55460;BME280;41326;45.302;-122.946;2022-07-05T08:23:04;100766.01;;;22.32;59.96
55460;BME280;41326;45.302;-122.946;2022-07-05T08:25:35;100765.99;;;22.26;60.15
55460;BME280;41326;45.302;-122.946;2022-07-05T08:28:06;100769.31;;;22.29;60.08
55460;BME280;41326;45.302;-122.946;2022-07-05T08:30:35;100771.04;;;22.33;59.95
55460;BME280;41326;45.302;-122.946;2022-07-05T08:33:06;100769.28;;;22.35;59.90
55460;BME280;41326;45.302;-122.946;2022-07-05T08:35:36;100769.25;;;22.25;60.20
55460;BME280;41326;45.302;-122.946;2022-07-05T08:38:06;100765.57;;;22.26;60.16
55460;BME280;41326;45.302;-122.946;2022-07-05T08:40:39;100764.70;;;22.28;59.95
55460;BME280;41326;45.302;-122.946;2022-07-05T08:43:07;100762.54;;;22.31;59.83
55460;BME280;41326;45.302;-122.946;2022-07-05T08:45:38;100756.37;;;22.26;60.05
55460;BME280;41326;45.302;-122.946;2022-07-05T08:48:09;100759.46;;;22.24;60.10
55460;BME280;41326;45.302;-122.946;2022-07-05T08:50:39;100756.41;;;22.28;59.98
55460;BME280;41326;45.302;-122.946;2022-07-05T08:53:09;100756.81;;;22.30;59.92
55460;BME280;41326;45.302;-122.946;2022-07-05T08:55:39;100763.49;;;22.29;59.92
55460;BME280;41326;45.302;-122.946;2022-07-05T08:58:09;100765.23;;;22.27;59.96
55460;BME280;41326;45.302;-122.946;2022-07-05T09:00:40;100768.53;;;22.19;60.17
55460;BME280;41326;45.302;-122.946;2022-07-05T09:03:10;100766.16;;;22.18;60.09
55460;BME280;41326;45.302;-122.946;2022-07-05T09:05:43;100763.55;;;22.22;60.04
55460;BME280;41326;45.302;-122.946;2022-07-05T09:08:13;100757.90;;;22.22;60.02
55460;BME280;41326;45.302;-122.946;2022-07-05T09:10:43;100751.43;;;22.25;59.88
55460;BME280;41326;45.302;-122.946;2022-07-05T09:13:11;100743.86;;;22.17;60.13
55460;BME280;41326;45.302;-122.946;2022-07-05T09:15:44;100743.02;;;22.19;60.04
55460;BME280;41326;45.302;-122.946;2022-07-05T09:18:12;100746.75;;;22.21;59.96
55460;BME280;41326;45.302;-122.946;2022-07-05T09:20:42;100749.34;;;22.22;59.79
55460;BME280;41326;45.302;-122.946;2022-07-05T09:23:13;100748.22;;;22.18;59.85
55460;BME280;41326;45.302;-122.946;2022-07-05T09:25:43;100751.75;;;22.19;59.92
55460;BME280;41326;45.302;-122.946;2022-07-05T09:28:14;100756.61;;;22.21;59.87
55460;BME280;41326;45.302;-122.946;2022-07-05T09:30:44;100758.02;;;21.97;60.71
55460;BME280;41326;45.302;-122.946;2022-07-05T09:33:15;100758.34;;;22.01;60.62
55460;BME280;41326;45.302;-122.946;2022-07-05T09:38:20;100749.44;;;22.11;60.27
55460;BME280;41326;45.302;-122.946;2022-07-05T09:40:50;100744.93;;;22.13;60.14
55460;BME280;41326;45.302;-122.946;2022-07-05T09:43:18;100749.06;;;22.14;60.05
55460;BME280;41326;45.302;-122.946;2022-07-05T09:45:53;100752.53;;;22.15;60.10
55460;BME280;41326;45.302;-122.946;2022-07-05T09:48:17;100756.11;;;22.13;60.23
55460;BME280;41326;45.302;-122.946;2022-07-05T09:50:48;100754.82;;;22.12;60.29
55460;BME280;41326;45.302;-122.946;2022-07-05T09:53:18;100754.57;;;22.10;60.45
55460;BME280;41326;45.302;-122.946;2022-07-05T10:00:48;100748.65;;;21.99;60.72
55460;BME280;41326;45.302;-122.946;2022-07-05T10:03:19;100747.62;;;22.04;60.56
55460;BME280;41326;45.302;-122.946;2022-07-05T10:05:50;100750.40;;;22.04;60.70
55460;BME280;41326;45.302;-122.946;2022-07-05T10:08:21;100755.25;;;22.07;60.62
55460;BME280;41326;45.302;-122.946;2022-07-05T10:10:51;100760.43;;;22.03;60.76
55460;BME280;41326;45.302;-122.946;2022-07-05T10:13:20;100768.40;;;21.87;61.38
55460;BME280;41326;45.302;-122.946;2022-07-05T10:15:51;100767.82;;;21.89;61.36
55460;BME280;41326;45.302;-122.946;2022-07-05T10:18:25;100762.00;;;21.98;60.99
55460;BME280;41326;45.302;-122.946;2022-07-05T10:20:52;100760.94;;;22.03;60.75
55460;BME280;41326;45.302;-122.946;2022-07-05T10:23:22;100755.63;;;21.98;60.84
55460;BME280;41326;45.302;-122.946;2022-07-05T10:25:53;100762.83;;;21.96;60.97
55460;BME280;41326;45.302;-122.946;2022-07-05T10:28:24;100768.73;;;22.02;60.89
55460;BME280;41326;45.302;-122.946;2022-07-05T10:30:54;100768.40;;;21.99;60.95
55460;BME280;41326;45.302;-122.946;2022-07-05T10:33:25;100770.67;;;21.97;61.00
55460;BME280;41326;45.302;-122.946;2022-07-05T10:35:54;100770.26;;;21.90;61.26
55460;BME280;41326;45.302;-122.946;2022-07-05T10:38:24;100766.44;;;21.95;61.01
55460;BME280;41326;45.302;-122.946;2022-07-05T10:40:58;100767.67;;;21.99;60.79
55460;BME280;41326;45.302;-122.946;2022-07-05T10:43:26;100771.31;;;21.99;60.73
55460;BME280;41326;45.302;-122.946;2022-07-05T10:45:56;100773.86;;;21.97;60.84
55460;BME280;41326;45.302;-122.946;2022-07-05T10:48:26;100771.27;;;22.00;60.73
55460;BME280;41326;45.302;-122.946;2022-07-05T10:50:58;100763.50;;;21.98;60.82
55460;BME280;41326;45.302;-122.946;2022-07-05T10:53:28;100756.35;;;21.88;61.21
55460;BME280;41326;45.302;-122.946;2022-07-05T10:55:58;100751.21;;;21.93;61.00
55460;BME280;41326;45.302;-122.946;2022-07-05T10:58:28;100751.89;;;21.97;60.88
55460;BME280;41326;45.302;-122.946;2022-07-05T11:03:32;100750.75;;;21.98;60.67
55460;BME280;41326;45.302;-122.946;2022-07-05T11:05:58;100750.00;;;21.98;60.71
55460;BME280;41326;45.302;-122.946;2022-07-05T11:08:27;100747.31;;;22.00;60.65
55460;BME280;41326;45.302;-122.946;2022-07-05T11:13:36;100739.04;;;21.97;60.71
55460;BME280;41326;45.302;-122.946;2022-07-05T11:18:29;100742.12;;;21.88;60.93
55460;BME280;41326;45.302;-122.946;2022-07-05T11:23:32;100746.73;;;21.91;60.72
55460;BME280;41326;45.302;-122.946;2022-07-05T11:26:00;100749.42;;;21.90;60.76
55460;BME280;41326;45.302;-122.946;2022-07-05T11:28:32;100749.83;;;21.90;60.81
55460;BME280;41326;45.302;-122.946;2022-07-05T11:31:02;100758.42;;;21.88;60.83
55460;BME280;41326;45.302;-122.946;2022-07-05T11:33:37;100760.00;;;21.90;60.75
55460;BME280;41326;45.302;-122.946;2022-07-05T11:36:02;100761.42;;;21.89;60.81
55460;BME280;41326;45.302;-122.946;2022-07-05T11:38:32;100760.97;;;21.87;60.90
55460;BME280;41326;45.302;-122.946;2022-07-05T11:43:33;100759.98;;;21.81;60.95
55460;BME280;41326;45.302;-122.946;2022-07-05T11:46:03;100757.85;;;21.86;60.88
55460;BME280;41326;45.302;-122.946;2022-07-05T11:48:33;100754.20;;;21.86;60.86
55460;BME280;41326;45.302;-122.946;2022-07-05T11:53:34;100755.90;;;21.80;61.05
55460;BME280;41326;45.302;-122.946;2022-07-05T11:56:04;100763.28;;;21.81;61.05
55460;BME280;41326;45.302;-122.946;2022-07-05T11:58:38;100763.40;;;21.83;60.96
55460;BME280;41326;45.302;-122.946;2022-07-05T12:01:05;100763.81;;;21.82;60.87
55460;BME280;41326;45.302;-122.946;2022-07-05T12:03:35;100765.17;;;21.81;60.84
55460;BME280;41326;45.302;-122.946;2022-07-05T12:06:11;100765.29;;;21.82;60.83
55460;BME280;41326;45.302;-122.946;2022-07-05T12:08:36;100768.33;;;21.84;60.78
55460;BME280;41326;45.302;-122.946;2022-07-05T12:11:09;100766.60;;;21.81;60.88
55460;BME280;41326;45.302;-122.946;2022-07-05T12:13:43;100767.53;;;21.76;61.04
55460;BME280;41326;45.302;-122.946;2022-07-05T12:16:08;100770.34;;;21.72;61.17
55460;BME280;41326;45.302;-122.946;2022-07-05T12:21:11;100774.45;;;21.69;61.25
55460;BME280;41326;45.302;-122.946;2022-07-05T12:23:38;100772.69;;;21.74;61.07
55460;BME280;41326;45.302;-122.946;2022-07-05T12:26:09;100767.46;;;21.77;61.01
55460;BME280;41326;45.302;-122.946;2022-07-05T12:28:39;100760.99;;;21.71;61.24
55460;BME280;41326;45.302;-122.946;2022-07-05T12:31:16;100754.42;;;21.69;61.29
55460;BME280;41326;45.302;-122.946;2022-07-05T12:33:40;100753.83;;;21.70;61.30
55460;BME280;41326;45.302;-122.946;2022-07-05T12:36:16;100752.35;;;21.66;61.42
55460;BME280;41326;45.302;-122.946;2022-07-05T12:38:41;100752.03;;;21.62;61.54
55460;BME280;41326;45.302;-122.946;2022-07-05T12:41:11;100748.07;;;21.65;61.31
55460;BME280;41326;45.302;-122.946;2022-07-05T12:43:49;100751.82;;;21.71;61.10
55460;BME280;41326;45.302;-122.946;2022-07-05T12:46:12;100754.88;;;21.73;61.08
55460;BME280;41326;45.302;-122.946;2022-07-05T12:48:43;100756.52;;;21.70;61.22
55460;BME280;41326;45.302;-122.946;2022-07-05T12:51:14;100752.31;;;21.71;61.19
55460;BME280;41326;45.302;-122.946;2022-07-05T12:53:47;100749.78;;;21.66;61.34
55460;BME280;41326;45.302;-122.946;2022-07-05T12:56:14;100748.29;;;21.70;61.23
55460;BME280;41326;45.302;-122.946;2022-07-05T12:58:48;100750.15;;;21.60;61.48
55460;BME280;41326;45.302;-122.946;2022-07-05T13:01:19;100757.26;;;21.58;61.49